RYR749C EIDW-EDDB
Flight info
| Callsign | RYR749C |
|---|---|
| Flight time | 1h 51m |
| Altitude | 39000 |
| Route | ENDEQ1E ENDEQ Q36 ALAVA Z195 MALUD UL975 WAL M16 DOLAS L603 LAMSO DCT TENLI DCT MAWEQ DCT AMALI DCT BATEL T207 OGBER OGBER1R |
| Aircraft | B38M/M-SDE1FGHILORVWXY/HB1 |
Departure
| Time | 2026-05-07 15:06 |
|---|---|
| Airport | Dublin Airport (EIDW) |
Arrival
| Time | 2026-05-07 16:58 |
|---|---|
| Airport | Berlin Brandenburg Airport (EDDB) |
| Time | Latitude | Longitude | Altitude | Speed | Heading |
|---|---|---|---|---|---|
| 2026-05-07 14:34 | 53.43000 | -6.24813 | 213 ft | 0 kts | 5° |
| 2026-05-07 14:56 | 53.42998 | -6.24814 | 213 ft | 2 kts | 5° |
| 2026-05-07 14:56 | 53.42973 | -6.24818 | 216 ft | 4 kts | 5° |
| 2026-05-07 14:57 | 53.42952 | -6.24820 | 213 ft | 4 kts | 345° |
| 2026-05-07 14:57 | 53.42941 | -6.24797 | 215 ft | 3 kts | 276° |
| 2026-05-07 14:57 | 53.42939 | -6.24755 | 213 ft | 4 kts | 275° |
| 2026-05-07 14:57 | 53.42938 | -6.24747 | 213 ft | 0 kts | 275° |
| 2026-05-07 15:00 | 53.42939 | -6.24764 | 213 ft | 5 kts | 275° |
| 2026-05-07 15:01 | 53.42928 | -6.24848 | 213 ft | 11 kts | 236° |
| 2026-05-07 15:01 | 53.42873 | -6.24951 | 213 ft | 10 kts | 227° |
| 2026-05-07 15:01 | 53.42802 | -6.25054 | 218 ft | 17 kts | 215° |
| 2026-05-07 15:01 | 53.42704 | -6.25216 | 213 ft | 23 kts | 225° |
| 2026-05-07 15:02 | 53.42574 | -6.25434 | 212 ft | 30 kts | 225° |
| 2026-05-07 15:02 | 53.42423 | -6.25693 | 214 ft | 33 kts | 225° |
| 2026-05-07 15:02 | 53.42289 | -6.25931 | 213 ft | 24 kts | 237° |
| 2026-05-07 15:02 | 53.42261 | -6.26203 | 213 ft | 25 kts | 275° |
| 2026-05-07 15:03 | 53.42278 | -6.26507 | 217 ft | 27 kts | 276° |
| 2026-05-07 15:03 | 53.42296 | -6.26832 | 213 ft | 29 kts | 275° |
| 2026-05-07 15:03 | 53.42315 | -6.27178 | 217 ft | 31 kts | 275° |
| 2026-05-07 15:03 | 53.42335 | -6.27544 | 213 ft | 32 kts | 275° |
| 2026-05-07 15:04 | 53.42356 | -6.27928 | 215 ft | 34 kts | 275° |
| 2026-05-07 15:04 | 53.42378 | -6.28328 | 218 ft | 35 kts | 276° |
| 2026-05-07 15:04 | 53.42397 | -6.28682 | 213 ft | 22 kts | 275° |
| 2026-05-07 15:04 | 53.42409 | -6.28892 | 221 ft | 19 kts | 276° |
| 2026-05-07 15:05 | 53.42368 | -6.29061 | 213 ft | 16 kts | 210° |
| 2026-05-07 15:05 | 53.42296 | -6.29072 | 212 ft | 7 kts | 174° |
| 2026-05-07 15:05 | 53.42248 | -6.29032 | 215 ft | 9 kts | 116° |
| 2026-05-07 15:05 | 53.42240 | -6.28965 | 215 ft | 0 kts | 95° |
| 2026-05-07 15:06 | 53.42232 | -6.28821 | 213 ft | 44 kts | 95° |
| 2026-05-07 15:06 | 53.42179 | -6.27845 | 214 ft | 121 kts | 95° |
| 2026-05-07 15:06 | 53.42090 | -6.26101 | 330 ft | 169 kts | 97° |
| 2026-05-07 15:06 | 53.41980 | -6.24094 | 1141 ft | 173 kts | 99° |
| 2026-05-07 15:07 | 53.41869 | -6.22121 | 2033 ft | 180 kts | 101° |
| 2026-05-07 15:07 | 53.41736 | -6.19914 | 2678 ft | 201 kts | 100° |
| 2026-05-07 15:07 | 53.41597 | -6.17422 | 3285 ft | 228 kts | 99° |
| 2026-05-07 15:07 | 53.41443 | -6.14642 | 3974 ft | 250 kts | 98° |
| 2026-05-07 15:08 | 53.41279 | -6.11646 | 4756 ft | 267 kts | 98° |
| 2026-05-07 15:08 | 53.41107 | -6.08504 | 5762 ft | 271 kts | 98° |
| 2026-05-07 15:08 | 53.40934 | -6.05330 | 6726 ft | 277 kts | 97° |
| 2026-05-07 15:08 | 53.41002 | -6.02055 | 7646 ft | 285 kts | 85° |
| 2026-05-07 15:09 | 53.41240 | -5.98737 | 8565 ft | 289 kts | 85° |
| 2026-05-07 15:09 | 53.41479 | -5.95366 | 9515 ft | 293 kts | 85° |
| 2026-05-07 15:09 | 53.41723 | -5.91936 | 10269 ft | 301 kts | 85° |
| 2026-05-07 15:09 | 53.41979 | -5.88346 | 10654 ft | 320 kts | 86° |
| 2026-05-07 15:10 | 53.42249 | -5.84548 | 10998 ft | 336 kts | 85° |
| 2026-05-07 15:10 | 53.42528 | -5.80579 | 11477 ft | 344 kts | 86° |
| 2026-05-07 15:10 | 53.42798 | -5.76587 | 12156 ft | 346 kts | 86° |
| 2026-05-07 15:10 | 53.43070 | -5.72550 | 12707 ft | 350 kts | 86° |
| 2026-05-07 15:11 | 53.43343 | -5.68482 | 13255 ft | 353 kts | 86° |
| 2026-05-07 15:11 | 53.43618 | -5.64373 | 13800 ft | 355 kts | 86° |
| 2026-05-07 15:11 | 53.43892 | -5.60243 | 14239 ft | 358 kts | 86° |
| 2026-05-07 15:11 | 53.44167 | -5.56080 | 14689 ft | 360 kts | 86° |
| 2026-05-07 15:12 | 53.44443 | -5.51889 | 15105 ft | 363 kts | 86° |
| 2026-05-07 15:12 | 53.44505 | -5.47662 | 15507 ft | 363 kts | 97° |
| 2026-05-07 15:12 | 53.44351 | -5.43428 | 16211 ft | 365 kts | 95° |
| 2026-05-07 15:12 | 53.44235 | -5.39144 | 16831 ft | 370 kts | 95° |
| 2026-05-07 15:13 | 53.44131 | -5.34816 | 17465 ft | 374 kts | 94° |
| 2026-05-07 15:13 | 53.44034 | -5.30423 | 18077 ft | 378 kts | 94° |
| 2026-05-07 15:13 | 53.43940 | -5.26001 | 18605 ft | 381 kts | 94° |
| 2026-05-07 15:13 | 53.43846 | -5.21544 | 19108 ft | 384 kts | 94° |
| 2026-05-07 15:14 | 53.43745 | -5.17109 | 19595 ft | 387 kts | 95° |
| 2026-05-07 15:14 | 53.43603 | -5.12593 | 20074 ft | 389 kts | 95° |
| 2026-05-07 15:14 | 53.43461 | -5.08043 | 20559 ft | 392 kts | 95° |
| 2026-05-07 15:14 | 53.43317 | -5.03470 | 21035 ft | 394 kts | 95° |
| 2026-05-07 15:15 | 53.43171 | -4.98860 | 21498 ft | 397 kts | 95° |
| 2026-05-07 15:15 | 53.43023 | -4.94215 | 21947 ft | 400 kts | 95° |
| 2026-05-07 15:15 | 53.42872 | -4.89547 | 22387 ft | 402 kts | 95° |
| 2026-05-07 15:15 | 53.42719 | -4.84850 | 22812 ft | 405 kts | 95° |
| 2026-05-07 15:16 | 53.42562 | -4.80117 | 23232 ft | 407 kts | 95° |
| 2026-05-07 15:16 | 53.42404 | -4.75365 | 23614 ft | 409 kts | 95° |
| 2026-05-07 15:16 | 53.42242 | -4.70581 | 23952 ft | 411 kts | 95° |
| 2026-05-07 15:16 | 53.42078 | -4.65791 | 24307 ft | 412 kts | 95° |
| 2026-05-07 15:17 | 53.41914 | -4.61052 | 24635 ft | 413 kts | 96° |
| 2026-05-07 15:17 | 53.41745 | -4.56235 | 24953 ft | 414 kts | 96° |
| 2026-05-07 15:17 | 53.41574 | -4.51409 | 25278 ft | 415 kts | 96° |
| 2026-05-07 15:17 | 53.41401 | -4.46573 | 25600 ft | 416 kts | 96° |
| 2026-05-07 15:18 | 53.41225 | -4.41716 | 25913 ft | 418 kts | 96° |
| 2026-05-07 15:18 | 53.41046 | -4.36850 | 26207 ft | 419 kts | 96° |
| 2026-05-07 15:18 | 53.40866 | -4.31977 | 26507 ft | 419 kts | 96° |
| 2026-05-07 15:18 | 53.40682 | -4.27084 | 26784 ft | 421 kts | 96° |
| 2026-05-07 15:19 | 53.40497 | -4.22193 | 27053 ft | 422 kts | 96° |
| 2026-05-07 15:19 | 53.40309 | -4.17282 | 27312 ft | 423 kts | 96° |
| 2026-05-07 15:19 | 53.40118 | -4.12360 | 27563 ft | 424 kts | 96° |
| 2026-05-07 15:19 | 53.39925 | -4.07415 | 27792 ft | 425 kts | 96° |
| 2026-05-07 15:20 | 53.39731 | -4.02483 | 28028 ft | 426 kts | 96° |
| 2026-05-07 15:20 | 53.39553 | -3.97519 | 28268 ft | 427 kts | 93° |
| 2026-05-07 15:20 | 53.39755 | -3.92524 | 28532 ft | 430 kts | 87° |
| 2026-05-07 15:20 | 53.40010 | -3.87599 | 28762 ft | 431 kts | 88° |
| 2026-05-07 15:21 | 53.40262 | -3.82581 | 29023 ft | 432 kts | 88° |
| 2026-05-07 15:21 | 53.40514 | -3.77554 | 29289 ft | 433 kts | 88° |
| 2026-05-07 15:21 | 53.40765 | -3.72514 | 29555 ft | 434 kts | 88° |
| 2026-05-07 15:21 | 53.41014 | -3.67472 | 29831 ft | 436 kts | 88° |
| 2026-05-07 15:22 | 53.41261 | -3.62395 | 30098 ft | 437 kts | 89° |
| 2026-05-07 15:22 | 53.41194 | -3.57341 | 30336 ft | 434 kts | 98° |
| 2026-05-07 15:22 | 53.40960 | -3.52274 | 30568 ft | 436 kts | 97° |
| 2026-05-07 15:22 | 53.40740 | -3.47209 | 30830 ft | 437 kts | 97° |
| 2026-05-07 15:23 | 53.40514 | -3.42122 | 31098 ft | 439 kts | 97° |
| 2026-05-07 15:23 | 53.40283 | -3.37010 | 31379 ft | 440 kts | 97° |
| 2026-05-07 15:23 | 53.40050 | -3.31882 | 31658 ft | 441 kts | 97° |
| 2026-05-07 15:23 | 53.39815 | -3.26754 | 31942 ft | 443 kts | 97° |
| 2026-05-07 15:24 | 53.39576 | -3.21604 | 32238 ft | 445 kts | 97° |
| 2026-05-07 15:24 | 53.39334 | -3.16428 | 32547 ft | 446 kts | 97° |
| 2026-05-07 15:24 | 53.39132 | -3.11238 | 32970 ft | 445 kts | 96° |
| 2026-05-07 15:24 | 53.38947 | -3.06068 | 33456 ft | 443 kts | 96° |
| 2026-05-07 15:25 | 53.38755 | -3.00921 | 33950 ft | 442 kts | 96° |
| 2026-05-07 15:25 | 53.38562 | -2.95786 | 34377 ft | 440 kts | 96° |
| 2026-05-07 15:25 | 53.38365 | -2.90659 | 34660 ft | 442 kts | 96° |
| 2026-05-07 15:25 | 53.38168 | -2.85586 | 34913 ft | 443 kts | 96° |
| 2026-05-07 15:26 | 53.37966 | -2.80442 | 35171 ft | 444 kts | 96° |
| 2026-05-07 15:26 | 53.37760 | -2.75266 | 35400 ft | 445 kts | 96° |
| 2026-05-07 15:26 | 53.37553 | -2.70092 | 35637 ft | 446 kts | 96° |
| 2026-05-07 15:26 | 53.37342 | -2.64903 | 35865 ft | 447 kts | 96° |
| 2026-05-07 15:27 | 53.37129 | -2.59695 | 36103 ft | 448 kts | 96° |
| 2026-05-07 15:27 | 53.36913 | -2.54486 | 36311 ft | 449 kts | 96° |
| 2026-05-07 15:27 | 53.36694 | -2.49276 | 36524 ft | 450 kts | 96° |
| 2026-05-07 15:27 | 53.36473 | -2.44030 | 36736 ft | 451 kts | 96° |
| 2026-05-07 15:28 | 53.36249 | -2.38798 | 36920 ft | 452 kts | 96° |
| 2026-05-07 15:28 | 53.36023 | -2.33550 | 37111 ft | 452 kts | 96° |
| 2026-05-07 15:28 | 53.35794 | -2.28293 | 37289 ft | 453 kts | 97° |
| 2026-05-07 15:28 | 53.35309 | -2.23084 | 37463 ft | 452 kts | 103° |
| 2026-05-07 15:29 | 53.34755 | -2.17975 | 37623 ft | 453 kts | 102° |
| 2026-05-07 15:29 | 53.34218 | -2.12775 | 37765 ft | 454 kts | 101° |
| 2026-05-07 15:29 | 53.33690 | -2.07567 | 37936 ft | 455 kts | 101° |
| 2026-05-07 15:29 | 53.33162 | -2.02337 | 38089 ft | 456 kts | 101° |
| 2026-05-07 15:30 | 53.32632 | -1.97098 | 38249 ft | 457 kts | 101° |
| 2026-05-07 15:30 | 53.32099 | -1.91855 | 38394 ft | 457 kts | 101° |
| 2026-05-07 15:30 | 53.31564 | -1.86609 | 38536 ft | 458 kts | 101° |
| 2026-05-07 15:30 | 53.31026 | -1.81354 | 38669 ft | 459 kts | 101° |
| 2026-05-07 15:31 | 53.30483 | -1.76080 | 38779 ft | 460 kts | 101° |
| 2026-05-07 15:31 | 53.29940 | -1.70820 | 38889 ft | 460 kts | 102° |
| 2026-05-07 15:31 | 53.29393 | -1.65551 | 39006 ft | 460 kts | 102° |
| 2026-05-07 15:31 | 53.28829 | -1.60282 | 39048 ft | 461 kts | 102° |
| 2026-05-07 15:32 | 53.27693 | -1.49750 | 39045 ft | 460 kts | 102° |
| 2026-05-07 15:32 | 53.26551 | -1.39235 | 39045 ft | 460 kts | 102° |
| 2026-05-07 15:33 | 53.25406 | -1.28786 | 39049 ft | 460 kts | 102° |
| 2026-05-07 15:33 | 53.24245 | -1.18277 | 39050 ft | 460 kts | 102° |
| 2026-05-07 15:34 | 53.23074 | -1.07771 | 39049 ft | 460 kts | 102° |
| 2026-05-07 15:34 | 53.21893 | -0.97260 | 39046 ft | 460 kts | 102° |
| 2026-05-07 15:35 | 53.20705 | -0.86762 | 39050 ft | 461 kts | 102° |
| 2026-05-07 15:35 | 53.19504 | -0.76269 | 39049 ft | 461 kts | 102° |
| 2026-05-07 15:36 | 53.18295 | -0.65770 | 39049 ft | 461 kts | 102° |
| 2026-05-07 15:36 | 53.17083 | -0.55340 | 39045 ft | 461 kts | 102° |
| 2026-05-07 15:37 | 53.15847 | -0.44777 | 39045 ft | 461 kts | 102° |
| 2026-05-07 15:37 | 53.14617 | -0.34361 | 39047 ft | 461 kts | 103° |
| 2026-05-07 15:38 | 53.13369 | -0.23871 | 39044 ft | 461 kts | 103° |
| 2026-05-07 15:38 | 53.12113 | -0.13399 | 39045 ft | 461 kts | 103° |
| 2026-05-07 15:39 | 53.11061 | -0.04690 | 39046 ft | 461 kts | 103° |
| 2026-05-07 15:39 | 53.09788 | 0.05770 | 39051 ft | 462 kts | 103° |
| 2026-05-07 15:40 | 53.08294 | 0.17942 | 39059 ft | 462 kts | 103° |
| 2026-05-07 15:40 | 53.07000 | 0.28406 | 39065 ft | 462 kts | 103° |
| 2026-05-07 15:41 | 53.05907 | 0.37171 | 39070 ft | 462 kts | 103° |
| 2026-05-07 15:41 | 53.04605 | 0.47549 | 39072 ft | 462 kts | 103° |
| 2026-05-07 15:42 | 53.03284 | 0.57993 | 39076 ft | 462 kts | 103° |
| 2026-05-07 15:42 | 53.01955 | 0.68433 | 39074 ft | 462 kts | 103° |
| 2026-05-07 15:43 | 53.00615 | 0.78876 | 39077 ft | 462 kts | 103° |
| 2026-05-07 15:43 | 52.99268 | 0.89311 | 39079 ft | 462 kts | 103° |
| 2026-05-07 15:44 | 52.97932 | 0.99742 | 39079 ft | 462 kts | 102° |
| 2026-05-07 15:44 | 52.96739 | 1.10243 | 39085 ft | 463 kts | 102° |
| 2026-05-07 15:45 | 52.95526 | 1.20726 | 39082 ft | 463 kts | 102° |
| 2026-05-07 15:45 | 52.94300 | 1.31211 | 39084 ft | 462 kts | 102° |
| 2026-05-07 15:46 | 52.92457 | 1.46828 | 39088 ft | 462 kts | 103° |
| 2026-05-07 15:47 | 52.91211 | 1.57277 | 39088 ft | 463 kts | 103° |
| 2026-05-07 15:47 | 52.89954 | 1.67733 | 39095 ft | 462 kts | 103° |
| 2026-05-07 15:48 | 52.88757 | 1.77616 | 39100 ft | 462 kts | 103° |
| 2026-05-07 15:48 | 52.87485 | 1.88040 | 39097 ft | 462 kts | 103° |
| 2026-05-07 15:49 | 52.86203 | 1.98471 | 39099 ft | 462 kts | 103° |
| 2026-05-07 15:49 | 52.84911 | 2.08898 | 39098 ft | 462 kts | 103° |
| 2026-05-07 15:50 | 52.83611 | 2.19306 | 39097 ft | 462 kts | 103° |
| 2026-05-07 15:50 | 52.82301 | 2.29720 | 39100 ft | 462 kts | 103° |
| 2026-05-07 15:51 | 52.80993 | 2.40047 | 39105 ft | 462 kts | 103° |
| 2026-05-07 15:51 | 52.79667 | 2.50442 | 39099 ft | 462 kts | 103° |
| 2026-05-07 15:52 | 52.78330 | 2.60842 | 39099 ft | 462 kts | 103° |
| 2026-05-07 15:52 | 52.76989 | 2.71216 | 39103 ft | 462 kts | 103° |
| 2026-05-07 15:53 | 52.75636 | 2.81601 | 39105 ft | 462 kts | 103° |
| 2026-05-07 15:53 | 52.74275 | 2.91973 | 39101 ft | 462 kts | 103° |
| 2026-05-07 15:54 | 52.72897 | 3.02324 | 39094 ft | 462 kts | 104° |
| 2026-05-07 15:54 | 52.71511 | 3.12600 | 39095 ft | 462 kts | 104° |
| 2026-05-07 15:55 | 52.70105 | 3.22949 | 39101 ft | 462 kts | 104° |
| 2026-05-07 15:55 | 52.68690 | 3.33293 | 39101 ft | 462 kts | 104° |
| 2026-05-07 15:56 | 52.67268 | 3.43620 | 39094 ft | 462 kts | 104° |
| 2026-05-07 15:56 | 52.65835 | 3.53948 | 39099 ft | 462 kts | 104° |
| 2026-05-07 15:57 | 52.64395 | 3.64259 | 39098 ft | 462 kts | 104° |
| 2026-05-07 15:57 | 52.62944 | 3.74578 | 39093 ft | 462 kts | 104° |
| 2026-05-07 15:58 | 52.61497 | 3.84801 | 39089 ft | 462 kts | 104° |
| 2026-05-07 15:58 | 52.60027 | 3.95110 | 39100 ft | 462 kts | 104° |
| 2026-05-07 15:59 | 52.58551 | 4.05396 | 39093 ft | 462 kts | 104° |
| 2026-05-07 15:59 | 52.57066 | 4.15681 | 39090 ft | 462 kts | 104° |
| 2026-05-07 16:00 | 52.55570 | 4.25968 | 39087 ft | 463 kts | 105° |
| 2026-05-07 16:00 | 52.54119 | 4.35876 | 39090 ft | 463 kts | 105° |
| 2026-05-07 16:01 | 52.52605 | 4.46154 | 39079 ft | 463 kts | 105° |
| 2026-05-07 16:01 | 52.51081 | 4.56427 | 39076 ft | 463 kts | 105° |
| 2026-05-07 16:02 | 52.49549 | 4.66697 | 39077 ft | 463 kts | 105° |
| 2026-05-07 16:02 | 52.48018 | 4.76887 | 39076 ft | 463 kts | 105° |
| 2026-05-07 16:03 | 52.46459 | 4.87198 | 39075 ft | 463 kts | 105° |
| 2026-05-07 16:03 | 52.44909 | 4.97379 | 39071 ft | 463 kts | 105° |
| 2026-05-07 16:04 | 52.43342 | 5.07615 | 39070 ft | 463 kts | 105° |
| 2026-05-07 16:04 | 52.41762 | 5.17867 | 39070 ft | 463 kts | 105° |
| 2026-05-07 16:05 | 52.40175 | 5.28097 | 39073 ft | 463 kts | 105° |
| 2026-05-07 16:05 | 52.38592 | 5.38240 | 39075 ft | 463 kts | 105° |
| 2026-05-07 16:06 | 52.36976 | 5.48535 | 39073 ft | 464 kts | 106° |
| 2026-05-07 16:06 | 52.35361 | 5.58751 | 39072 ft | 464 kts | 106° |
| 2026-05-07 16:07 | 52.33741 | 5.68946 | 39069 ft | 464 kts | 106° |
| 2026-05-07 16:07 | 52.32109 | 5.79148 | 39068 ft | 464 kts | 106° |
| 2026-05-07 16:08 | 52.30467 | 5.89346 | 39050 ft | 464 kts | 106° |
| 2026-05-07 16:08 | 52.28817 | 5.99549 | 39044 ft | 464 kts | 106° |
| 2026-05-07 16:09 | 52.27172 | 6.09675 | 39046 ft | 464 kts | 106° |
| 2026-05-07 16:09 | 52.25507 | 6.19857 | 39046 ft | 464 kts | 106° |
| 2026-05-07 16:10 | 52.24871 | 6.30281 | 39054 ft | 466 kts | 87° |
| 2026-05-07 16:10 | 52.25120 | 6.40869 | 39048 ft | 468 kts | 89° |
| 2026-05-07 16:11 | 52.25321 | 6.51478 | 39053 ft | 468 kts | 89° |
| 2026-05-07 16:11 | 52.25512 | 6.62080 | 39049 ft | 468 kts | 89° |
| 2026-05-07 16:12 | 52.25694 | 6.72707 | 39048 ft | 468 kts | 89° |
| 2026-05-07 16:12 | 52.25865 | 6.83255 | 39053 ft | 468 kts | 90° |
| 2026-05-07 16:13 | 52.26028 | 6.93861 | 39056 ft | 468 kts | 90° |
| 2026-05-07 16:13 | 52.26181 | 7.04486 | 39059 ft | 468 kts | 90° |
| 2026-05-07 16:14 | 52.26325 | 7.15108 | 39061 ft | 468 kts | 90° |
| 2026-05-07 16:14 | 52.26459 | 7.25729 | 39075 ft | 468 kts | 90° |
| 2026-05-07 16:15 | 52.26584 | 7.36368 | 39084 ft | 468 kts | 90° |
| 2026-05-07 16:15 | 52.26699 | 7.46998 | 39090 ft | 468 kts | 90° |
| 2026-05-07 16:16 | 52.26805 | 7.57625 | 39098 ft | 469 kts | 90° |
| 2026-05-07 16:16 | 52.26901 | 7.68270 | 39095 ft | 469 kts | 90° |
| 2026-05-07 16:17 | 52.26987 | 7.78912 | 39099 ft | 469 kts | 90° |
| 2026-05-07 16:17 | 52.27064 | 7.89495 | 39096 ft | 469 kts | 91° |
| 2026-05-07 16:18 | 52.27132 | 8.00153 | 39091 ft | 469 kts | 91° |
| 2026-05-07 16:18 | 52.27189 | 8.10803 | 39084 ft | 469 kts | 91° |
| 2026-05-07 16:19 | 52.27238 | 8.21467 | 39084 ft | 469 kts | 91° |
| 2026-05-07 16:19 | 52.27277 | 8.32132 | 39083 ft | 470 kts | 91° |
| 2026-05-07 16:20 | 52.27308 | 8.42788 | 39083 ft | 470 kts | 91° |
| 2026-05-07 16:20 | 52.27332 | 8.53453 | 39082 ft | 470 kts | 91° |
| 2026-05-07 16:21 | 52.28057 | 8.64048 | 39086 ft | 471 kts | 80° |
| 2026-05-07 16:21 | 52.29302 | 8.74564 | 39076 ft | 473 kts | 80° |
| 2026-05-07 16:22 | 52.30559 | 8.85112 | 39075 ft | 473 kts | 80° |
| 2026-05-07 16:22 | 52.31809 | 8.95661 | 39073 ft | 473 kts | 80° |
| 2026-05-07 16:23 | 52.33052 | 9.06233 | 39078 ft | 473 kts | 80° |
| 2026-05-07 16:23 | 52.34276 | 9.16735 | 39075 ft | 473 kts | 80° |
| 2026-05-07 16:24 | 52.35500 | 9.27318 | 39082 ft | 474 kts | 81° |
| 2026-05-07 16:24 | 52.36716 | 9.37921 | 39071 ft | 474 kts | 81° |
| 2026-05-07 16:25 | 52.37923 | 9.48534 | 39074 ft | 474 kts | 81° |
| 2026-05-07 16:25 | 52.39120 | 9.59143 | 39103 ft | 474 kts | 81° |
| 2026-05-07 16:26 | 52.40308 | 9.69774 | 39103 ft | 474 kts | 81° |
| 2026-05-07 16:26 | 52.41487 | 9.80407 | 39103 ft | 475 kts | 81° |
| 2026-05-07 16:27 | 52.42656 | 9.91047 | 39108 ft | 475 kts | 81° |
| 2026-05-07 16:27 | 52.43817 | 10.01702 | 39078 ft | 475 kts | 81° |
| 2026-05-07 16:28 | 52.44963 | 10.12311 | 39075 ft | 476 kts | 81° |
| 2026-05-07 16:28 | 52.46108 | 10.23009 | 39076 ft | 476 kts | 81° |
| 2026-05-07 16:29 | 52.47246 | 10.33712 | 39095 ft | 477 kts | 82° |
| 2026-05-07 16:29 | 52.48342 | 10.44429 | 39094 ft | 477 kts | 82° |
| 2026-05-07 16:30 | 52.49406 | 10.55176 | 39095 ft | 477 kts | 82° |
| 2026-05-07 16:30 | 52.50464 | 10.65923 | 39093 ft | 477 kts | 82° |
| 2026-05-07 16:31 | 52.51337 | 10.74860 | 39090 ft | 477 kts | 82° |
| 2026-05-07 16:31 | 52.52377 | 10.85623 | 39086 ft | 477 kts | 83° |
| 2026-05-07 16:32 | 52.53577 | 10.98154 | 39075 ft | 478 kts | 83° |
| 2026-05-07 16:32 | 52.54434 | 11.07185 | 38806 ft | 475 kts | 83° |
| 2026-05-07 16:32 | 52.54743 | 11.12625 | 37547 ft | 483 kts | 90° |
| 2026-05-07 16:33 | 52.54924 | 11.19844 | 36930 ft | 474 kts | 89° |
| 2026-05-07 16:33 | 52.55013 | 11.23493 | 36516 ft | 472 kts | 89° |
| 2026-05-07 16:33 | 52.55137 | 11.28870 | 35880 ft | 470 kts | 89° |
| 2026-05-07 16:33 | 52.55257 | 11.34227 | 35222 ft | 469 kts | 90° |
| 2026-05-07 16:34 | 52.55373 | 11.39513 | 34545 ft | 469 kts | 89° |
| 2026-05-07 16:34 | 52.55489 | 11.44936 | 33793 ft | 468 kts | 90° |
| 2026-05-07 16:34 | 52.55601 | 11.50277 | 32967 ft | 468 kts | 90° |
| 2026-05-07 16:34 | 52.55709 | 11.55557 | 32211 ft | 467 kts | 90° |
| 2026-05-07 16:35 | 52.55817 | 11.60879 | 31593 ft | 463 kts | 90° |
| 2026-05-07 16:35 | 52.55920 | 11.66144 | 31012 ft | 459 kts | 90° |
| 2026-05-07 16:35 | 52.56020 | 11.71365 | 30442 ft | 455 kts | 91° |
| 2026-05-07 16:35 | 52.56118 | 11.76534 | 29851 ft | 450 kts | 91° |
| 2026-05-07 16:36 | 52.56212 | 11.81646 | 29226 ft | 446 kts | 91° |
| 2026-05-07 16:36 | 52.56304 | 11.86721 | 28661 ft | 441 kts | 91° |
| 2026-05-07 16:36 | 52.56391 | 11.91747 | 28054 ft | 438 kts | 91° |
| 2026-05-07 16:36 | 52.56477 | 11.96729 | 27483 ft | 434 kts | 91° |
| 2026-05-07 16:37 | 52.56559 | 12.01670 | 26908 ft | 432 kts | 91° |
| 2026-05-07 16:37 | 52.56640 | 12.06587 | 26363 ft | 428 kts | 91° |
| 2026-05-07 16:37 | 52.56655 | 12.11458 | 25822 ft | 425 kts | 92° |
| 2026-05-07 16:37 | 52.56661 | 12.16299 | 25311 ft | 422 kts | 92° |
| 2026-05-07 16:38 | 52.56670 | 12.21106 | 24789 ft | 419 kts | 91° |
| 2026-05-07 16:38 | 52.56907 | 12.25867 | 24296 ft | 418 kts | 81° |
| 2026-05-07 16:38 | 52.57377 | 12.30561 | 23811 ft | 415 kts | 82° |
| 2026-05-07 16:38 | 52.57829 | 12.35230 | 23307 ft | 412 kts | 82° |
| 2026-05-07 16:39 | 52.58278 | 12.39869 | 22764 ft | 409 kts | 82° |
| 2026-05-07 16:39 | 52.58723 | 12.44469 | 22254 ft | 406 kts | 82° |
| 2026-05-07 16:39 | 52.59163 | 12.49046 | 21752 ft | 403 kts | 82° |
| 2026-05-07 16:39 | 52.59597 | 12.53572 | 21254 ft | 400 kts | 82° |
| 2026-05-07 16:40 | 52.60027 | 12.58081 | 20770 ft | 398 kts | 82° |
| 2026-05-07 16:40 | 52.60454 | 12.62566 | 20310 ft | 395 kts | 82° |
| 2026-05-07 16:40 | 52.60592 | 12.67027 | 19836 ft | 390 kts | 98° |
| 2026-05-07 16:40 | 52.59912 | 12.71276 | 19383 ft | 382 kts | 117° |
| 2026-05-07 16:41 | 52.58520 | 12.74882 | 18928 ft | 376 kts | 134° |
| 2026-05-07 16:41 | 52.56623 | 12.77778 | 18481 ft | 371 kts | 143° |
| 2026-05-07 16:41 | 52.54627 | 12.80434 | 17990 ft | 369 kts | 144° |
| 2026-05-07 16:41 | 52.52609 | 12.83003 | 17564 ft | 365 kts | 145° |
| 2026-05-07 16:42 | 52.50605 | 12.85496 | 17297 ft | 357 kts | 145° |
| 2026-05-07 16:42 | 52.48643 | 12.87906 | 17089 ft | 347 kts | 146° |
| 2026-05-07 16:42 | 52.46730 | 12.90232 | 16896 ft | 338 kts | 146° |
| 2026-05-07 16:42 | 52.44862 | 12.92492 | 16725 ft | 329 kts | 146° |
| 2026-05-07 16:43 | 52.43159 | 12.94547 | 16582 ft | 320 kts | 146° |
| 2026-05-07 16:43 | 52.41387 | 12.96681 | 16435 ft | 311 kts | 146° |
| 2026-05-07 16:43 | 52.39677 | 12.98738 | 16225 ft | 300 kts | 146° |
| 2026-05-07 16:43 | 52.37949 | 13.00503 | 15937 ft | 286 kts | 163° |
| 2026-05-07 16:44 | 52.36062 | 13.00918 | 15715 ft | 267 kts | 190° |
| 2026-05-07 16:44 | 52.34347 | 12.99964 | 15280 ft | 261 kts | 214° |
| 2026-05-07 16:44 | 52.33044 | 12.97952 | 14831 ft | 258 kts | 236° |
| 2026-05-07 16:44 | 52.32274 | 12.95324 | 14387 ft | 257 kts | 253° |
| 2026-05-07 16:45 | 52.31862 | 12.92529 | 13879 ft | 256 kts | 253° |
| 2026-05-07 16:45 | 52.31345 | 12.89752 | 13367 ft | 254 kts | 251° |
| 2026-05-07 16:45 | 52.30782 | 12.87031 | 12874 ft | 252 kts | 250° |
| 2026-05-07 16:45 | 52.30192 | 12.84368 | 12475 ft | 246 kts | 249° |
| 2026-05-07 16:46 | 52.29595 | 12.81777 | 12173 ft | 243 kts | 248° |
| 2026-05-07 16:46 | 52.28988 | 12.79202 | 11873 ft | 241 kts | 248° |
| 2026-05-07 16:46 | 52.28380 | 12.76660 | 11591 ft | 240 kts | 248° |
| 2026-05-07 16:46 | 52.27768 | 12.74129 | 11272 ft | 239 kts | 248° |
| 2026-05-07 16:47 | 52.27155 | 12.71614 | 10990 ft | 238 kts | 248° |
| 2026-05-07 16:47 | 52.26542 | 12.69106 | 10681 ft | 239 kts | 248° |
| 2026-05-07 16:47 | 52.25791 | 12.66710 | 10377 ft | 238 kts | 229° |
| 2026-05-07 16:47 | 52.24454 | 12.65156 | 10077 ft | 239 kts | 203° |
| 2026-05-07 16:48 | 52.22823 | 12.64716 | 9793 ft | 241 kts | 178° |
| 2026-05-07 16:48 | 52.21246 | 12.65508 | 9518 ft | 244 kts | 152° |
| 2026-05-07 16:48 | 52.20001 | 12.67384 | 9246 ft | 248 kts | 126° |
| 2026-05-07 16:48 | 52.19229 | 12.69896 | 9004 ft | 249 kts | 114° |
| 2026-05-07 16:49 | 52.18904 | 12.72669 | 8701 ft | 254 kts | 88° |
| 2026-05-07 16:49 | 52.19292 | 12.75481 | 8423 ft | 256 kts | 71° |
| 2026-05-07 16:49 | 52.19900 | 12.78216 | 8147 ft | 259 kts | 70° |
| 2026-05-07 16:49 | 52.20544 | 12.80996 | 7822 ft | 265 kts | 69° |
| 2026-05-07 16:50 | 52.21216 | 12.83833 | 7511 ft | 270 kts | 68° |
| 2026-05-07 16:50 | 52.21900 | 12.86692 | 7198 ft | 269 kts | 68° |
| 2026-05-07 16:50 | 52.22583 | 12.89519 | 6891 ft | 270 kts | 68° |
| 2026-05-07 16:50 | 52.23271 | 12.92356 | 6584 ft | 266 kts | 68° |
| 2026-05-07 16:51 | 52.23943 | 12.95123 | 6278 ft | 259 kts | 68° |
| 2026-05-07 16:51 | 52.24602 | 12.97837 | 6008 ft | 256 kts | 68° |
| 2026-05-07 16:51 | 52.25282 | 13.00511 | 5712 ft | 255 kts | 66° |
| 2026-05-07 16:51 | 52.25958 | 13.03158 | 5578 ft | 250 kts | 67° |
| 2026-05-07 16:52 | 52.26601 | 13.05786 | 5420 ft | 249 kts | 68° |
| 2026-05-07 16:52 | 52.27231 | 13.08415 | 5220 ft | 249 kts | 68° |
| 2026-05-07 16:52 | 52.27866 | 13.11073 | 4966 ft | 250 kts | 68° |
| 2026-05-07 16:52 | 52.28488 | 13.13679 | 4864 ft | 245 kts | 68° |
| 2026-05-07 16:53 | 52.29107 | 13.16276 | 4566 ft | 243 kts | 68° |
| 2026-05-07 16:53 | 52.29703 | 13.18780 | 4251 ft | 229 kts | 68° |
| 2026-05-07 16:53 | 52.30264 | 13.21141 | 3941 ft | 216 kts | 68° |
| 2026-05-07 16:53 | 52.30794 | 13.23366 | 3660 ft | 204 kts | 68° |
| 2026-05-07 16:54 | 52.31301 | 13.25497 | 3400 ft | 198 kts | 68° |
| 2026-05-07 16:54 | 52.31794 | 13.27571 | 3116 ft | 193 kts | 68° |
| 2026-05-07 16:54 | 52.32272 | 13.29585 | 2865 ft | 185 kts | 68° |
| 2026-05-07 16:54 | 52.32703 | 13.31396 | 2641 ft | 163 kts | 68° |
| 2026-05-07 16:55 | 52.33101 | 13.33071 | 2424 ft | 156 kts | 68° |
| 2026-05-07 16:55 | 52.33494 | 13.34726 | 2252 ft | 155 kts | 67° |
| 2026-05-07 16:55 | 52.33884 | 13.36369 | 2022 ft | 155 kts | 67° |
| 2026-05-07 16:55 | 52.34268 | 13.37985 | 1801 ft | 146 kts | 67° |
| 2026-05-07 16:56 | 52.34617 | 13.39452 | 1605 ft | 134 kts | 67° |
| 2026-05-07 16:56 | 52.34947 | 13.40846 | 1408 ft | 129 kts | 66° |
| 2026-05-07 16:56 | 52.35605 | 13.43610 | 906 ft | 131 kts | 69° |
| 2026-05-07 16:57 | 52.35934 | 13.44998 | 678 ft | 131 kts | 71° |
| 2026-05-07 16:57 | 52.36265 | 13.46387 | 463 ft | 131 kts | 71° |
| 2026-05-07 16:57 | 52.36602 | 13.47794 | 282 ft | 134 kts | 70° |
| 2026-05-07 16:57 | 52.36939 | 13.49203 | 161 ft | 125 kts | 70° |
| 2026-05-07 16:58 | 52.37190 | 13.50283 | 160 ft | 72 kts | 68° |
| 2026-05-07 16:58 | 52.37300 | 13.50803 | 160 ft | 34 kts | 82° |
| 2026-05-07 16:58 | 52.37292 | 13.51134 | 163 ft | 14 kts | 98° |
| 2026-05-07 16:58 | 52.37281 | 13.51257 | 165 ft | 10 kts | 98° |
| 2026-05-07 16:59 | 52.37243 | 13.51373 | 163 ft | 12 kts | 135° |
| 2026-05-07 16:59 | 52.37170 | 13.51436 | 160 ft | 5 kts | 158° |
| 2026-05-07 16:59 | 52.37149 | 13.51450 | 161 ft | 3 kts | 158° |
| 2026-05-07 16:59 | 52.37126 | 13.51464 | 161 ft | 2 kts | 160° |
| 2026-05-07 17:00 | 52.37124 | 13.51465 | 161 ft | 0 kts | 160° |
| 2026-05-07 17:00 | 52.37117 | 13.51469 | 160 ft | 4 kts | 160° |
| 2026-05-07 17:00 | 52.37067 | 13.51479 | 159 ft | 11 kts | 193° |
| 2026-05-07 17:00 | 52.37028 | 13.51402 | 159 ft | 11 kts | 250° |
| 2026-05-07 17:01 | 52.36990 | 13.51241 | 158 ft | 18 kts | 249° |
| 2026-05-07 17:01 | 52.36952 | 13.51082 | 158 ft | 14 kts | 248° |
| 2026-05-07 17:01 | 52.36925 | 13.50965 | 158 ft | 7 kts | 248° |
| 2026-05-07 17:01 | 52.36906 | 13.50947 | 158 ft | 3 kts | 182° |
| 2026-05-07 17:02 | 52.36879 | 13.50959 | 157 ft | 7 kts | 158° |
| 2026-05-07 17:02 | 52.36850 | 13.50977 | 158 ft | 3 kts | 159° |
| 2026-05-07 17:02 | 52.36843 | 13.50982 | 158 ft | 0 kts | 159° |